Tuesday, May 31, 2016
02:05 UTC
  |  Log In   |  Register Free
Airport Search:

Powell Municipal Airport
(KPOY)

Powell Municipal Airport Diagram
No Airport Diagram Available

FAA data valid effective Mar 31 2016 - May 26 2016 (unless otherwise noted).

 
 
 
 
 
 
 
 
 
 
 
 
 
 
Current Aviation Weather for KPOY

Weather Summary


The most recent METAR observation for POY was updated at: 12:55 UTC
METAR for KPOY is not available. Closest METAR is for KU68
KPOY  (most recent observation was updatred at 31:01 UTC)
310155Z AUTO 36016KT 10SM CLR 11/00 A3010 RMK AO2

KU68  (15.0 nm SW)   (most recent observation was updated at 31:01 UTC)
310155Z AUTO 03009G19KT 10SM CLR 14/00 A3008 RMK AO2

KCOD  (23.1 nm NE)   (most recent observation was updated at 31:01 UTC)
310155Z AUTO 33005KT 10SM SCT090 12/04 A3011 RMK AO1

TAF for KPOY is not available.
KCOD  (23.1 nm NE)   (most recent observation was updatred at 30:23 UTC)
302322Z 3100/3124 01012G20KT P6SM VCSH BKN050 FM310200 36008KT P6SM BKN040 FM310600 28011KT P6SM SCT070 FM311600 02011KT P6SM SCT060 FM312000 02011KT P6SM VCSH BKN060 AMD LTD TO CLD VIS AND WIND


GlobalAir.com is loading additional information.
 Current Weather at POY
57.0 F° (14.0 C°)

North winds at 19.6 mph
Pressure:
30.09 in
Humidity:
39%
Wind:
North at 19.6 mph
Dew Point:
32.0 F° (0.0 C°)
Visibility:
10.00 mi
POY NOAA Radar




Find All Airport Services Find A Hotel Find A Rental Car Find A Golf Course Find A Restaurant $100 Hamburger



Airport Weather Forecast for KPOY

Translated METAR for KPOY (0155 UTC)
METAR:
KPOY 310155Z AUTO 36016KT 10SM CLR 11/00 A3010 RMK AO2
Conditions at:
KPOY (Powell Muni, WY) observed 0155 UTC 30 May 2016
Temperature:
11°C (51.8°F)
Dewpoint:
0°C (32°F) [RH = 46.6]
Pressure:
30.1 inches Hg (1019.3 mb)
Winds:
from the N (360 degrees) at 18.4 mph (16 knots: 8.2 m/s)
Visibility:
10 mile(s)
Ceiling:
at least 12,000 feet AGL
Clouds:
Clear below 12,000 feet AGL
Remarks:
site is un-manned
site is automated and HAS a precipitation sensor

Translated TAF for KCOD (Yellowstone Rgnl, WY) (2322 UTC)
TAF text:
KCOD 302322Z 3100/3124 01012G20KT P6SM VCSH BKN050
Forecast period:
Tuesday May 31 2016 00:00 UTC - Tuesday May 31 2016 24:00 UTC
Forecast type:
FROM: standard forecast or significant change
Winds:
from the N (010 degrees) at 13.8 mph (12 knots: 6.2 m/s)
gusting to 23 mph (20 knots: 10.3 m/s)
Visibility:
6 or more mile(s) (9.7+ km)
Ceiling:
5,000 feet AGL
Clouds:
Broken Cloud Cover at 5,000 feet AGL
Weather:
Moderate In Vicinity Shower(s)
TAF text:
FM310200 36008KT P6SM BKN040
Forecast period:
Tuesday May 31 2016 02:00 UTC - Tuesday May 31 2016 06:00 UTC
Forecast type:
FROM: standard forecast or significant change
Winds:
from the N (360 degrees) at 9.2 mph (8 knots: 4.1 m/s)
Visibility:
6 or more mile(s) (9.7+ km)
Ceiling:
4,000 feet AGL
Clouds:
Broken Cloud Cover at 4,000 feet AGL
Weather:
no significant weather observed at this time
TAF text:
FM310600 28011KT P6SM SCT070
Forecast period:
Tuesday May 31 2016 06:00 UTC - Tuesday May 31 2016 16:00 UTC
Forecast type:
FROM: standard forecast or significant change
Winds:
from the W (280 degrees) at 12.7 mph (11 knots: 5.7 m/s)
Visibility:
6 or more mile(s) (9.7+ km)
Ceiling:
at least 12,000 feet AGL
Clouds:
Scattered Clouds at 7,000 feet AGL
Weather:
no significant weather observed at this time
TAF text:
FM311600 02011KT P6SM SCT060
Forecast period:
Tuesday May 31 2016 16:00 UTC - Tuesday May 31 2016 20:00 UTC
Forecast type:
FROM: standard forecast or significant change
Winds:
from the NNE (020 degrees) at 12.7 mph (11 knots: 5.7 m/s)
Visibility:
6 or more mile(s) (9.7+ km)
Ceiling:
at least 12,000 feet AGL
Clouds:
Scattered Clouds at 6,000 feet AGL
Weather:
no significant weather observed at this time
TAF text:
FM312000 02011KT P6SM VCSH BKN060 LTD TO CLD VIS AND WIND
Forecast period:
Tuesday May 31 2016 20:00 UTC - Tuesday May 31 2016 24:00 UTC
Forecast type:
FROM: standard forecast or significant change
Winds:
from the NNE (020 degrees) at 12.7 mph (11 knots: 5.7 m/s)
Visibility:
6 or more mile(s) (9.7+ km)
Ceiling:
6,000 feet AGL
Clouds:
Broken Cloud Cover at 6,000 feet AGL
Weather:
Moderate In Vicinity Shower(s)
FBO's on the Field
FBO Company Facility Photos Services Transportation Aviation Fuel Prices: Prices include tax
Catering Weather Repair Courtesy Rental Type 100LL JetA JetA+ MOGAS 8087
 
City of Powell

This FBO has not yet been rated
FS:Independent
Last Updated: May-18
Login to update fuel prices
SS:
Contact City of PowellMore FBO Information
 
Add another FBO Facility Photos Catering Weather Repair Courtesy Rental Type 100LL JetA JetA+ MOGAS 8087
Services Transportation Aviation Fuel Prices: Prices include tax


model-print
model-print
model-print
model-print